Fayetteville, Georgia
Current Conditions -  °F | °C
As of 3:53 PM on Saturday 22 Nov 2014 (Local Time) from KFFC Reporting Station
Broken Clouds Broken Clouds  
Wind Chill: 62°   Ceiling: 6000
Heat Index: 62°   Visibility: 10mi
Dew Point: 36°   Wind: 9mph
Humidity: 38%   Direction: 100°E
Pressure: 30.27"   Gusts: NA
Location:  33.45°N, 84.45°W
Report Text: KFFC 222053Z AUTO 10008KT 10SM FEW040 BKN060 17/02 A3027 RMK AO2 SLP254 T01670022 56028
Loading
Personal Weather Stations






























Interactive Weather Map New forecast layout! Learn more

10-Day Weather Forecast

Advertisements
Track Severe Weather on mobile